createdAt,value
2017-11-16T00:00:11.178Z,89.54
2017-11-16T00:02:37.417Z,89.83
2017-11-16T00:05:03.675Z,89.92
2017-11-16T00:07:29.955Z,89.68
2017-11-16T00:09:56.206Z,89.69
2017-11-16T00:12:22.450Z,89.86
2017-11-16T00:14:48.732Z,89.52
2017-11-16T00:17:14.973Z,89.52
2017-11-16T00:19:41.187Z,89.41
2017-11-16T00:22:07.463Z,89.53
2017-11-16T00:24:33.711Z,89.62
2017-11-16T00:26:59.949Z,89.68
2017-11-16T00:29:26.314Z,89.81
2017-11-16T00:31:52.573Z,89.44
2017-11-16T00:34:18.809Z,89.56
2017-11-16T00:36:45.084Z,89.60
2017-11-16T00:39:11.311Z,89.46
2017-11-16T00:41:37.534Z,89.31
2017-11-16T00:44:03.821Z,88.91
2017-11-16T00:46:30.053Z,88.89
2017-11-16T00:48:56.285Z,88.77
2017-11-16T00:51:22.590Z,88.54
2017-11-16T00:53:48.848Z,88.61
2017-11-16T00:56:15.092Z,88.42
2017-11-16T00:58:41.382Z,88.51
2017-11-16T01:01:07.631Z,88.32
2017-11-16T01:03:33.872Z,88.35
2017-11-16T01:06:00.145Z,88.55
2017-11-16T01:08:26.391Z,88.82
2017-11-16T01:10:52.628Z,88.83
2017-11-16T01:13:18.922Z,89.01
2017-11-16T01:15:45.208Z,89.43
2017-11-16T01:18:11.439Z,89.53
2017-11-16T01:20:37.749Z,89.71
2017-11-16T01:23:03.984Z,89.38
2017-11-16T01:25:30.225Z,88.94
2017-11-16T01:27:56.497Z,90.21
2017-11-16T01:30:22.754Z,90.36
2017-11-16T01:32:48.979Z,89.96
2017-11-16T01:35:15.250Z,89.78
2017-11-16T01:37:41.500Z,89.91
2017-11-16T01:40:07.738Z,89.70
2017-11-16T01:42:34.031Z,89.47
2017-11-16T01:45:00.279Z,89.06
2017-11-16T01:47:26.508Z,88.66
2017-11-16T01:49:52.852Z,89.01
2017-11-16T01:52:19.093Z,89.04
2017-11-16T01:54:45.534Z,88.78
2017-11-16T01:57:11.836Z,88.84
2017-11-16T01:59:38.082Z,88.79
2017-11-16T02:02:04.318Z,88.86
2017-11-16T02:04:30.597Z,89.24
2017-11-16T02:06:56.855Z,89.59
2017-11-16T02:09:23.102Z,89.71
2017-11-16T02:11:49.383Z,89.75
2017-11-16T02:14:15.620Z,89.78
2017-11-16T02:16:41.863Z,90.01
2017-11-16T02:19:08.149Z,89.74
2017-11-16T02:21:34.389Z,89.58
2017-11-16T02:24:00.626Z,89.54
2017-11-16T02:26:26.908Z,89.55
2017-11-16T02:28:53.136Z,89.35
2017-11-16T02:31:19.380Z,89.35
2017-11-16T02:33:45.653Z,89.49
2017-11-16T02:36:11.891Z,89.40
2017-11-16T02:38:38.131Z,89.93
2017-11-16T02:41:04.417Z,90.25
2017-11-16T02:43:30.705Z,90.16
2017-11-16T02:45:56.939Z,90.49
2017-11-16T02:48:23.217Z,90.18
2017-11-16T02:50:49.454Z,90.26
2017-11-16T02:53:15.698Z,90.10
2017-11-16T02:55:41.965Z,89.80
2017-11-16T02:58:08.197Z,89.50
2017-11-16T03:00:34.506Z,89.55
2017-11-16T03:03:00.821Z,89.50
2017-11-16T03:05:27.080Z,89.45
2017-11-16T03:07:53.311Z,89.55
2017-11-16T03:10:19.622Z,89.62
2017-11-16T03:12:45.867Z,89.57
2017-11-16T03:15:12.108Z,89.70
2017-11-16T03:17:38.372Z,89.91
2017-11-16T03:20:04.606Z,90.10
2017-11-16T03:22:30.850Z,90.46
2017-11-16T03:24:57.146Z,90.35
2017-11-16T03:27:23.403Z,90.17
2017-11-16T03:29:49.646Z,90.40
2017-11-16T03:32:15.924Z,90.44
2017-11-16T03:34:42.191Z,90.32
2017-11-16T03:37:08.442Z,90.09
2017-11-16T03:39:34.720Z,90.32
2017-11-16T03:42:00.971Z,90.21
2017-11-16T03:44:27.225Z,90.23
2017-11-16T03:46:53.501Z,90.06
2017-11-16T03:49:19.739Z,89.75
2017-11-16T03:51:45.965Z,89.68
2017-11-16T03:54:12.249Z,90.04
2017-11-16T03:56:38.486Z,90.03
2017-11-16T03:59:04.746Z,89.30
2017-11-16T04:01:31.017Z,89.34
2017-11-16T04:03:57.277Z,89.21
2017-11-16T04:06:23.524Z,89.22
2017-11-16T04:08:49.819Z,89.06
2017-11-16T04:11:16.168Z,89.29
2017-11-16T04:13:42.400Z,90.41
2017-11-16T04:16:08.666Z,89.43
2017-11-16T04:18:34.902Z,89.12
2017-11-16T04:21:01.140Z,88.75
2017-11-16T04:23:27.423Z,88.83
2017-11-16T04:25:53.670Z,88.74
2017-11-16T04:28:19.930Z,88.63
2017-11-16T04:30:46.231Z,88.88
2017-11-16T04:33:12.460Z,89.07
2017-11-16T04:35:38.693Z,89.16
2017-11-16T04:38:04.969Z,88.85
2017-11-16T04:40:31.211Z,89.10
2017-11-16T04:42:57.449Z,89.32
2017-11-16T04:45:23.757Z,89.85
2017-11-16T04:47:50.005Z,90.38
2017-11-16T04:50:16.240Z,90.30
2017-11-16T04:52:42.581Z,90.06
2017-11-16T04:55:08.803Z,89.91
2017-11-16T04:57:35.057Z,89.76
2017-11-16T05:00:01.504Z,89.60
2017-11-16T05:02:27.746Z,89.61
2017-11-16T05:04:53.973Z,89.56
2017-11-16T05:07:20.440Z,89.49
2017-11-16T05:09:46.691Z,89.72
2017-11-16T05:12:12.908Z,89.35
2017-11-16T05:14:39.221Z,89.68
2017-11-16T05:17:05.455Z,89.37
2017-11-16T05:19:31.693Z,89.22
2017-11-16T05:21:58.004Z,88.96
2017-11-16T05:24:24.251Z,88.97
2017-11-16T05:26:50.484Z,88.87
2017-11-16T05:29:16.822Z,89.04
2017-11-16T05:31:43.045Z,89.23
2017-11-16T05:34:09.272Z,89.03
2017-11-16T05:36:35.532Z,89.12
2017-11-16T05:39:01.767Z,88.88
2017-11-16T05:41:27.996Z,88.69
2017-11-16T05:43:54.269Z,88.50
2017-11-16T05:46:20.492Z,88.37
2017-11-16T05:48:46.848Z,88.12
2017-11-16T05:51:13.122Z,88.02
2017-11-16T05:53:39.349Z,88.33
2017-11-16T05:56:05.575Z,87.88
2017-11-16T05:58:31.964Z,87.15
2017-11-16T06:00:58.183Z,86.65
2017-11-16T06:03:24.408Z,86.55
2017-11-16T06:05:50.679Z,86.53
2017-11-16T06:08:16.931Z,86.23
2017-11-16T06:10:43.147Z,85.86
2017-11-16T06:13:09.409Z,85.71
2017-11-16T06:15:35.627Z,85.61
2017-11-16T06:18:01.856Z,84.71
2017-11-16T06:20:28.123Z,84.78
2017-11-16T06:22:54.375Z,84.75
2017-11-16T06:25:20.617Z,85.46
2017-11-16T06:27:46.896Z,85.25
2017-11-16T06:30:13.128Z,85.09
2017-11-16T06:32:39.378Z,84.88
2017-11-16T06:35:05.662Z,84.79
2017-11-16T06:37:31.899Z,84.21
2017-11-16T06:39:58.143Z,84.60
2017-11-16T06:42:24.421Z,85.16
2017-11-16T06:44:50.658Z,85.46
2017-11-16T06:47:16.894Z,85.42
2017-11-16T06:49:43.169Z,83.31
2017-11-16T06:52:09.401Z,82.24
2017-11-16T06:54:35.619Z,80.77
2017-11-16T06:57:01.894Z,80.35
2017-11-16T06:59:28.132Z,79.34
2017-11-16T07:01:54.375Z,78.66
2017-11-16T07:04:20.644Z,77.71
2017-11-16T07:06:46.873Z,76.90
2017-11-16T07:09:13.112Z,76.83
2017-11-16T07:11:39.393Z,75.59
2017-11-16T07:14:05.772Z,73.99
2017-11-16T07:16:32.049Z,72.67
2017-11-16T07:18:58.323Z,71.93
2017-11-16T07:21:24.567Z,71.27
2017-11-16T07:23:50.808Z,71.07
2017-11-16T07:26:17.096Z,71.15
2017-11-16T07:28:43.334Z,70.18
2017-11-16T07:31:09.574Z,69.34
2017-11-16T07:33:35.853Z,69.05
2017-11-16T07:36:02.088Z,67.84
2017-11-16T07:38:28.324Z,66.23
2017-11-16T07:40:54.601Z,65.24
2017-11-16T07:43:20.845Z,64.16
2017-11-16T07:45:47.101Z,64.25
2017-11-16T07:48:13.387Z,65.28
2017-11-16T07:50:39.614Z,65.93
2017-11-16T07:53:05.941Z,65.70
2017-11-16T07:55:32.373Z,65.07
2017-11-16T07:57:58.591Z,64.42
2017-11-16T08:00:24.832Z,65.04
2017-11-16T08:02:51.101Z,66.79
2017-11-16T08:05:17.522Z,68.27
2017-11-16T08:07:43.762Z,67.50
2017-11-16T08:10:10.024Z,67.60
2017-11-16T08:12:36.247Z,66.91
2017-11-16T08:15:02.480Z,65.66
2017-11-16T08:17:28.742Z,65.80
2017-11-16T08:19:54.979Z,63.46
2017-11-16T08:22:21.207Z,63.40
2017-11-16T08:24:47.468Z,63.63
2017-11-16T08:27:13.709Z,64.01
2017-11-16T08:29:39.947Z,64.40
2017-11-16T08:32:06.227Z,66.07
2017-11-16T08:34:32.457Z,66.43
2017-11-16T08:36:58.717Z,66.52
2017-11-16T08:39:24.986Z,65.54
2017-11-16T08:41:51.253Z,65.61
2017-11-16T08:44:17.543Z,63.97
2017-11-16T08:46:43.818Z,64.43
2017-11-16T08:49:10.196Z,66.09
2017-11-16T08:51:36.445Z,67.03
2017-11-16T08:54:02.726Z,65.96
2017-11-16T08:56:28.970Z,65.41
2017-11-16T08:58:55.199Z,64.21
2017-11-16T09:01:21.600Z,63.86
2017-11-16T09:03:47.835Z,62.55
2017-11-16T09:06:14.056Z,61.94
2017-11-16T09:08:40.328Z,62.62
2017-11-16T09:11:06.557Z,63.10
2017-11-16T09:13:32.780Z,62.73
2017-11-16T09:15:59.067Z,62.32
2017-11-16T09:18:25.338Z,62.39
2017-11-16T09:20:51.595Z,64.58
2017-11-16T09:23:17.901Z,64.56
2017-11-16T09:25:44.266Z,64.10
2017-11-16T09:28:10.505Z,63.85
2017-11-16T09:30:36.806Z,63.51
2017-11-16T09:33:03.058Z,63.98
2017-11-16T09:35:29.280Z,64.30
2017-11-16T09:37:55.572Z,63.77
2017-11-16T09:40:21.815Z,63.66
2017-11-16T09:42:48.046Z,63.30
2017-11-16T09:45:14.340Z,64.05
2017-11-16T09:47:40.569Z,64.67
2017-11-16T09:50:06.806Z,64.47
2017-11-16T09:52:33.070Z,64.62
2017-11-16T09:54:59.297Z,63.53
2017-11-16T09:57:25.541Z,63.38
2017-11-16T09:59:51.818Z,63.30
2017-11-16T10:02:18.065Z,63.19
2017-11-16T10:04:44.305Z,63.78
2017-11-16T10:07:10.649Z,63.19
2017-11-16T10:09:36.862Z,63.44
2017-11-16T10:12:03.084Z,62.84
2017-11-16T10:14:29.357Z,62.59
2017-11-16T10:16:55.582Z,62.51
2017-11-16T10:19:21.810Z,62.83
2017-11-16T10:21:48.076Z,62.26
2017-11-16T10:24:14.309Z,61.99
2017-11-16T10:26:40.537Z,61.31
2017-11-16T10:29:06.821Z,60.35
2017-11-16T10:31:33.053Z,59.93
2017-11-16T10:33:59.276Z,58.60
2017-11-16T10:36:25.566Z,57.50
2017-11-16T10:38:51.805Z,56.80
2017-11-16T10:41:18.040Z,55.88
2017-11-16T10:43:44.303Z,53.22
2017-11-16T10:46:10.535Z,52.48
2017-11-16T10:48:36.802Z,52.74
2017-11-16T10:51:03.160Z,51.95
2017-11-16T10:53:29.403Z,52.59
2017-11-16T10:55:55.645Z,50.73
2017-11-16T10:58:21.914Z,51.85
2017-11-16T11:00:48.160Z,50.87
2017-11-16T11:03:14.389Z,52.71
2017-11-16T11:05:40.667Z,52.30
2017-11-16T11:08:06.891Z,53.19
2017-11-16T11:10:33.125Z,52.96
2017-11-16T11:12:59.384Z,51.13
2017-11-16T11:15:25.618Z,51.74
2017-11-16T11:17:51.871Z,51.52
2017-11-16T11:20:18.140Z,51.71
2017-11-16T11:22:44.378Z,51.68
2017-11-16T11:25:10.615Z,51.43
2017-11-16T11:27:36.893Z,52.65
2017-11-16T11:30:03.131Z,53.02
2017-11-16T11:32:29.379Z,54.53
2017-11-16T11:34:55.672Z,54.41
2017-11-16T11:37:21.914Z,53.38
2017-11-16T11:39:48.155Z,52.18
2017-11-16T11:42:14.429Z,50.17
2017-11-16T11:44:40.680Z,50.32
2017-11-16T11:47:06.924Z,51.20
2017-11-16T11:49:33.198Z,51.21
2017-11-16T11:51:59.447Z,50.81
2017-11-16T11:54:25.667Z,50.85
2017-11-16T11:56:51.947Z,52.22
2017-11-16T11:59:18.177Z,53.63
2017-11-16T12:01:44.404Z,55.28
2017-11-16T12:04:10.684Z,55.38
2017-11-16T12:06:37.038Z,57.13
2017-11-16T12:09:03.263Z,57.55
2017-11-16T12:11:29.530Z,58.20
2017-11-16T12:13:55.759Z,58.89
2017-11-16T12:16:22.011Z,59.09
2017-11-16T12:18:48.283Z,59.44
2017-11-16T12:21:14.527Z,60.47
2017-11-16T12:23:40.765Z,60.55
2017-11-16T12:26:07.038Z,60.94
2017-11-16T12:28:33.264Z,61.38
2017-11-16T12:30:59.498Z,60.98
2017-11-16T12:33:25.776Z,61.19
2017-11-16T12:35:52.014Z,61.17
2017-11-16T12:38:18.252Z,61.60
2017-11-16T12:40:44.736Z,62.28
2017-11-16T12:43:10.965Z,62.42
2017-11-16T12:45:37.221Z,61.67
2017-11-16T12:48:03.527Z,62.31
2017-11-16T12:50:29.751Z,62.28
2017-11-16T12:52:55.976Z,61.79
2017-11-16T12:55:22.241Z,61.61
2017-11-16T12:57:48.446Z,62.41
2017-11-16T13:00:14.662Z,62.33
2017-11-16T13:02:40.945Z,61.83
2017-11-16T13:05:07.181Z,61.69
2017-11-16T13:07:33.436Z,62.22
2017-11-16T13:09:59.716Z,62.13
2017-11-16T13:12:25.951Z,62.68
2017-11-16T13:14:52.172Z,63.02
2017-11-16T13:17:18.461Z,63.43
2017-11-16T13:19:44.702Z,63.85
2017-11-16T13:22:10.921Z,64.37
2017-11-16T13:24:37.201Z,64.69
2017-11-16T13:27:03.433Z,65.32
2017-11-16T13:29:29.684Z,65.13
2017-11-16T13:31:55.956Z,65.20
2017-11-16T13:34:22.209Z,64.86
2017-11-16T13:36:48.454Z,65.06
2017-11-16T13:39:14.728Z,65.54
2017-11-16T13:41:40.970Z,65.83
2017-11-16T13:44:07.251Z,66.38
2017-11-16T13:46:33.557Z,66.22
2017-11-16T13:48:59.794Z,66.44
2017-11-16T13:51:26.011Z,67.22
2017-11-16T13:53:52.281Z,67.60
2017-11-16T13:56:18.530Z,68.17
2017-11-16T13:58:44.766Z,68.28
2017-11-16T14:01:11.046Z,68.11
2017-11-16T14:03:37.272Z,68.44
2017-11-16T14:06:03.497Z,68.06
2017-11-16T14:08:29.757Z,67.99
2017-11-16T14:10:55.989Z,68.26
2017-11-16T14:13:22.226Z,68.35
2017-11-16T14:15:48.487Z,68.51
2017-11-16T14:18:14.717Z,68.58
2017-11-16T14:20:40.940Z,68.93
2017-11-16T14:23:07.213Z,68.50
2017-11-16T14:25:33.424Z,68.67
2017-11-16T14:27:59.665Z,69.32
2017-11-16T14:30:25.935Z,69.49
2017-11-16T14:32:52.250Z,69.71
2017-11-16T14:35:18.495Z,70.05
2017-11-16T14:37:44.768Z,70.07
2017-11-16T14:40:11.012Z,70.16
2017-11-16T14:42:37.236Z,70.54
2017-11-16T14:45:03.498Z,70.79
2017-11-16T14:47:29.718Z,70.74
2017-11-16T14:49:55.957Z,70.98
2017-11-16T14:52:22.215Z,71.09
2017-11-16T14:54:48.433Z,71.25
2017-11-16T14:57:14.673Z,71.43
2017-11-16T14:59:40.945Z,71.94
2017-11-16T15:02:07.178Z,72.26
2017-11-16T15:04:33.428Z,72.14
2017-11-16T15:06:59.689Z,72.17
2017-11-16T15:09:25.950Z,72.91
2017-11-16T15:11:52.232Z,73.09
2017-11-16T15:14:18.590Z,72.89
2017-11-16T15:16:44.881Z,72.95
2017-11-16T15:19:11.121Z,73.08
2017-11-16T15:21:37.403Z,73.18
2017-11-16T15:24:03.640Z,73.06
2017-11-16T15:26:29.871Z,73.15
2017-11-16T15:28:56.150Z,73.83
2017-11-16T15:31:22.386Z,73.74
2017-11-16T15:33:48.612Z,73.92
2017-11-16T15:36:14.914Z,74.73
2017-11-16T15:38:41.150Z,74.41
2017-11-16T15:41:07.379Z,75.03
2017-11-16T15:43:33.663Z,75.31
2017-11-16T15:45:59.892Z,75.59
2017-11-16T15:48:26.121Z,76.22
2017-11-16T15:50:52.414Z,76.14
2017-11-16T15:53:18.634Z,76.58
2017-11-16T15:55:44.958Z,76.48
2017-11-16T15:58:11.237Z,76.61
2017-11-16T16:00:37.482Z,76.89
2017-11-16T16:03:03.731Z,77.56
2017-11-16T16:05:30.003Z,77.77
2017-11-16T16:07:56.241Z,78.07
2017-11-16T16:10:22.497Z,78.08
2017-11-16T16:12:48.781Z,78.29
2017-11-16T16:15:15.005Z,78.60
2017-11-16T16:17:41.250Z,78.39
2017-11-16T16:20:07.529Z,78.75
2017-11-16T16:22:33.964Z,78.94
2017-11-16T16:25:00.205Z,78.51
2017-11-16T16:27:26.549Z,78.38
2017-11-16T16:29:52.829Z,78.44
2017-11-16T16:32:19.087Z,78.41
2017-11-16T16:34:45.347Z,79.13
2017-11-16T16:37:11.598Z,78.91
2017-11-16T16:39:37.829Z,78.97
2017-11-16T16:42:04.107Z,79.23
2017-11-16T16:44:30.336Z,79.21
2017-11-16T16:46:56.554Z,78.44
2017-11-16T16:49:22.816Z,78.93
2017-11-16T16:51:49.047Z,78.87
2017-11-16T16:54:15.276Z,78.80
2017-11-16T16:56:41.777Z,78.60
2017-11-16T16:59:08.013Z,79.07
2017-11-16T17:01:34.276Z,78.57
2017-11-16T17:04:00.569Z,78.92
2017-11-16T17:06:26.800Z,78.79
2017-11-16T17:08:53.016Z,78.44
2017-11-16T17:11:19.306Z,77.50
2017-11-16T17:13:45.557Z,77.98
2017-11-16T17:16:11.832Z,77.92
2017-11-16T17:18:38.128Z,77.54
2017-11-16T17:21:04.360Z,78.43
2017-11-16T17:23:30.568Z,79.22
2017-11-16T17:25:56.841Z,79.01
2017-11-16T17:28:23.064Z,78.97
2017-11-16T17:30:49.322Z,79.30
2017-11-16T17:33:15.629Z,79.24
2017-11-16T17:35:41.882Z,79.60
2017-11-16T17:38:08.113Z,79.58
2017-11-16T17:40:34.391Z,79.23
2017-11-16T17:43:00.615Z,79.01
2017-11-16T17:45:26.844Z,78.90
2017-11-16T17:47:53.128Z,79.02
2017-11-16T17:50:19.350Z,79.38
2017-11-16T17:52:45.592Z,79.05
2017-11-16T17:55:11.898Z,79.11
2017-11-16T17:57:38.122Z,79.54
2017-11-16T18:00:04.356Z,79.52
2017-11-16T18:02:30.774Z,79.98
2017-11-16T18:04:57.004Z,79.64
2017-11-16T18:07:23.237Z,79.88
2017-11-16T18:09:49.494Z,80.15
2017-11-16T18:12:15.761Z,79.76
2017-11-16T18:14:41.984Z,79.71
2017-11-16T18:17:08.248Z,79.67
2017-11-16T18:19:34.497Z,78.98
2017-11-16T18:22:00.800Z,79.03
2017-11-16T18:24:27.088Z,78.68
2017-11-16T18:26:53.368Z,77.82
2017-11-16T18:29:19.616Z,78.21
2017-11-16T18:31:45.895Z,78.46
2017-11-16T18:34:12.127Z,78.51
2017-11-16T18:36:38.345Z,78.35
2017-11-16T18:39:04.629Z,78.83
2017-11-16T18:41:30.853Z,79.21
2017-11-16T18:43:57.079Z,78.76
2017-11-16T18:46:23.486Z,79.17
2017-11-16T18:48:49.720Z,78.90
2017-11-16T18:51:15.963Z,79.05
2017-11-16T18:53:42.224Z,79.11
2017-11-16T18:56:08.473Z,78.98
2017-11-16T18:58:34.703Z,78.89
2017-11-16T19:01:00.991Z,78.87
2017-11-16T19:03:27.230Z,78.63
2017-11-16T19:05:53.453Z,78.72
2017-11-16T19:08:19.729Z,78.32
2017-11-16T19:10:45.947Z,78.46
2017-11-16T19:13:12.167Z,78.49
2017-11-16T19:15:38.422Z,78.04
2017-11-16T19:18:04.661Z,77.82
2017-11-16T19:20:30.910Z,78.29
2017-11-16T19:22:57.145Z,78.21
2017-11-16T19:25:23.385Z,78.31
2017-11-16T19:27:49.623Z,77.93
2017-11-16T19:30:15.926Z,77.91
2017-11-16T19:32:42.156Z,78.19
2017-11-16T19:35:08.420Z,78.77
2017-11-16T19:37:34.691Z,78.82
2017-11-16T19:40:00.915Z,78.88
2017-11-16T19:42:27.123Z,78.90
2017-11-16T19:44:53.405Z,78.80
2017-11-16T19:47:19.657Z,78.80
2017-11-16T19:49:45.911Z,78.52
2017-11-16T19:52:12.199Z,79.14
2017-11-16T19:54:38.431Z,79.10
2017-11-16T19:57:04.757Z,79.38
2017-11-16T19:59:31.010Z,79.31
2017-11-16T20:01:57.247Z,79.22
2017-11-16T20:04:23.494Z,79.02
2017-11-16T20:06:49.761Z,79.21
2017-11-16T20:09:15.999Z,79.10
2017-11-16T20:11:42.282Z,79.45
2017-11-16T20:14:08.572Z,79.22
2017-11-16T20:16:34.804Z,79.46
2017-11-16T20:19:01.038Z,78.83
2017-11-16T20:21:27.345Z,78.73
2017-11-16T20:23:53.565Z,78.47
2017-11-16T20:26:19.789Z,78.74
2017-11-16T20:28:46.053Z,78.44
2017-11-16T20:31:12.282Z,79.03
2017-11-16T20:33:38.514Z,79.19
2017-11-16T20:36:04.775Z,79.16
2017-11-16T20:38:30.996Z,78.81
2017-11-16T20:40:57.251Z,78.53
2017-11-16T20:43:23.503Z,78.66
2017-11-16T20:45:49.750Z,78.50
2017-11-16T20:48:15.972Z,78.75
2017-11-16T20:50:42.234Z,79.07
2017-11-16T20:53:08.460Z,78.87
2017-11-16T20:55:34.698Z,78.98
2017-11-16T20:58:00.993Z,78.86
2017-11-16T21:00:27.250Z,79.17
2017-11-16T21:02:53.486Z,79.21
2017-11-16T21:05:19.721Z,79.18
2017-11-16T21:07:45.954Z,79.24
2017-11-16T21:10:12.199Z,79.07
2017-11-16T21:12:38.412Z,79.51
2017-11-16T21:15:04.881Z,79.47
2017-11-16T21:17:31.094Z,79.56
2017-11-16T21:19:57.323Z,79.55
2017-11-16T21:22:23.669Z,79.65
2017-11-16T21:24:49.893Z,79.95
2017-11-16T21:27:16.234Z,79.65
2017-11-16T21:29:42.544Z,79.81
2017-11-16T21:32:08.896Z,79.61
2017-11-16T21:34:35.127Z,79.46
2017-11-16T21:37:01.429Z,79.50
2017-11-16T21:39:27.695Z,79.54
2017-11-16T21:41:53.925Z,79.58
2017-11-16T21:44:20.197Z,79.65
2017-11-16T21:46:46.429Z,79.52
2017-11-16T21:49:12.655Z,79.75
2017-11-16T21:51:38.933Z,79.89
2017-11-16T21:54:05.160Z,79.75
2017-11-16T21:56:31.396Z,80.00
2017-11-16T21:58:57.640Z,80.30
2017-11-16T22:01:23.879Z,80.06
2017-11-16T22:03:50.122Z,79.89
2017-11-16T22:06:16.415Z,80.13
2017-11-16T22:08:42.652Z,80.28
2017-11-16T22:11:08.892Z,80.08
2017-11-16T22:13:35.172Z,80.31
2017-11-16T22:16:01.407Z,80.65
2017-11-16T22:18:27.626Z,80.61
2017-11-16T22:20:53.911Z,80.56
2017-11-16T22:23:20.148Z,80.89
2017-11-16T22:25:46.377Z,81.40
2017-11-16T22:28:12.675Z,81.33
2017-11-16T22:30:38.902Z,80.92
2017-11-16T22:33:05.209Z,80.86
2017-11-16T22:35:31.484Z,80.81
2017-11-16T22:37:57.888Z,81.01
2017-11-16T22:40:24.129Z,81.59
2017-11-16T22:42:50.414Z,81.68
2017-11-16T22:45:16.670Z,81.69
2017-11-16T22:47:42.907Z,81.71
2017-11-16T22:50:09.204Z,81.93
2017-11-16T22:52:35.450Z,81.95
2017-11-16T22:55:01.739Z,82.35
2017-11-16T22:57:28.023Z,82.36
2017-11-16T22:59:54.253Z,82.27
2017-11-16T23:02:20.484Z,82.55
2017-11-16T23:04:46.828Z,82.55
2017-11-16T23:07:13.043Z,82.61
2017-11-16T23:09:39.502Z,82.36
2017-11-16T23:12:05.765Z,82.46
2017-11-16T23:14:32.028Z,82.73
2017-11-16T23:16:58.267Z,83.17
2017-11-16T23:19:24.527Z,83.27
2017-11-16T23:21:50.762Z,83.39
2017-11-16T23:24:17.009Z,83.46
2017-11-16T23:26:43.269Z,83.45
2017-11-16T23:29:09.504Z,83.73
2017-11-16T23:31:35.730Z,83.51
2017-11-16T23:34:01.995Z,83.27
2017-11-16T23:36:28.235Z,83.29
2017-11-16T23:38:54.464Z,83.25
2017-11-16T23:41:20.740Z,83.17
2017-11-16T23:43:46.976Z,83.11
2017-11-16T23:46:13.221Z,83.09
2017-11-16T23:48:39.485Z,83.02
2017-11-16T23:51:05.708Z,82.84
2017-11-16T23:53:31.941Z,82.74
2017-11-16T23:55:58.210Z,82.61
2017-11-16T23:58:24.427Z,82.40
